首页
METAR-TAF:

METAR-TAF

机场 :

明斯克国际机场

明斯克, 白俄罗斯

纬度: 53-56N, 经度: 027-38E, 海拔: 234米

当前天气观测

该预报发布于21分钟前的15:00 UTC
风速6节,风向西转西北,有时为12节阵风,在西南北转西北之间变化
温度 22°C
湿度 65%
气压 1016 hPa
能见度10公里或以上
多云层高于3200英尺

METAR: UMMS 171500Z 29003G06MPS 220V330 9999 BKN032 22/15 Q1016 R88/D NOSIG

时间: 18:21 (15:21 UTC)

预报

该预报发布于4小时和14分钟前的11:07 UTC
预报有效从17日的 12点(UTC)到 18日的 12点(UTC)
风速10节,风向西,有时为19节阵风
能见度10公里或以上
多云层高于2000英尺
短暂存在
从 17日的 12点(UTC)到 17日的 20点(UTC)
风速14节,风向西转西北,有时为23节阵风
能見度: 2100
多云层高于700英尺
散云层高于2500英尺, 积雨云.
小阵雨
几率 40% :
短暂存在
从 17日的 14点(UTC)到 17日的 18点(UTC)
多云层高于2500英尺, 积雨云.
雷暴, 小雨
成为
从 17日的 20点(UTC)到 17日的 21点(UTC)
风速8节,风向西
短暂存在
从 17日的 21点(UTC)到 18日的 05点(UTC)
能見度: 1500
散云层高于300英尺
碎片雾, 轻雾
短暂存在
从 18日的 05点(UTC)到 18日的 12点(UTC)
风速12节,风向北转西北,有时为21节阵风

TAF: UMMS 171107Z 1712/1812 28005G10MPS 9999 BKN020 TEMPO 1712/1720 30007G12MPS 2100 -SHRA BKN007 SCT025CB PROB40 TEMPO 1714/1718 -TSRA BKN025CB BECMG 1720/1721 28004MPS TEMPO 1721/1805 1500 BCFG BR SCT003 TEMPO 1805/1812 33006G11MPS

超过4000个机场的气象观测和天气预报(METAR&TAF报告)。

可查询的气象台以黄色和红色小点在地图上表示。

将鼠标移到小点上方,可查看气象台名称。

然后点击查看天气观测和预报。

如需切换地图:点击带黑十字的绿色按钮放大地图;点击带横线的绿色按钮缩小地图;或者点击绿色箭头查看邻近地区的地图。


METAR-TAF: